createdAt,value
2017-08-26T00:05:13.358Z,19.50
2017-08-26T00:07:41.383Z,19.50
2017-08-26T00:10:09.407Z,19.50
2017-08-26T00:12:37.439Z,19.60
2017-08-26T00:15:05.466Z,19.50
2017-08-26T00:17:34.451Z,19.40
2017-08-26T00:20:02.483Z,19.40
2017-08-26T00:22:30.498Z,19.40
2017-08-26T00:24:58.523Z,19.20
2017-08-26T00:27:26.538Z,19.10
2017-08-26T00:29:55.527Z,19.00
2017-08-26T00:32:24.518Z,18.80
2017-08-26T00:34:54.547Z,18.70
2017-08-26T00:37:23.522Z,18.80
2017-08-26T00:39:51.546Z,18.80
2017-08-26T00:42:19.594Z,18.90
2017-08-26T00:44:48.370Z,18.80
2017-08-26T00:47:16.397Z,18.70
2017-08-26T00:49:45.430Z,18.70
2017-08-26T00:52:13.446Z,18.60
2017-08-26T00:54:41.461Z,18.60
2017-08-26T00:57:10.480Z,18.60
2017-08-26T00:59:39.270Z,18.60
2017-08-26T01:02:07.293Z,18.60
2017-08-26T01:04:35.306Z,18.70
2017-08-26T01:10:01.038Z,18.60
2017-08-26T01:12:29.062Z,18.70
2017-08-26T01:14:57.074Z,18.70
2017-08-26T01:17:26.049Z,18.80
2017-08-26T01:19:54.061Z,18.80
2017-08-26T01:22:22.078Z,18.70
2017-08-26T01:24:50.106Z,18.80
2017-08-26T01:27:18.121Z,18.80
2017-08-26T01:29:46.146Z,18.80
2017-08-26T01:32:15.106Z,18.80
2017-08-26T01:34:44.085Z,18.90
2017-08-26T01:37:13.078Z,18.90
2017-08-26T01:39:41.117Z,18.90
2017-08-26T01:42:11.052Z,18.90
2017-08-26T01:44:39.068Z,18.90
2017-08-26T01:47:07.111Z,18.90
2017-08-26T01:49:36.097Z,18.90
2017-08-26T01:52:04.129Z,18.90
2017-08-26T01:54:33.202Z,18.80
2017-08-26T01:57:01.221Z,18.60
2017-08-26T01:59:29.245Z,18.60
2017-08-26T02:01:57.277Z,18.60
2017-08-26T02:04:25.305Z,18.60
2017-08-26T02:06:53.321Z,18.50
2017-08-26T02:09:23.350Z,18.50
2017-08-26T02:11:51.360Z,18.50
2017-08-26T02:14:20.385Z,18.40
2017-08-26T02:16:48.425Z,18.40
2017-08-26T02:19:16.453Z,18.40
2017-08-26T02:21:46.249Z,18.40
2017-08-26T02:24:14.277Z,18.30
2017-08-26T02:26:42.297Z,18.50
2017-08-26T02:29:10.313Z,18.60
2017-08-26T02:31:38.345Z,18.80
2017-08-26T02:34:07.313Z,18.90
2017-08-26T02:36:35.355Z,19.10
2017-08-26T02:39:03.381Z,19.10
2017-08-26T02:41:31.413Z,19.20
2017-08-26T02:44:00.401Z,19.10
2017-08-26T02:46:29.429Z,19.10
2017-08-26T02:49:01.869Z,19.10
2017-08-26T02:51:29.909Z,19.10
2017-08-26T02:53:57.925Z,19.10
2017-08-26T02:56:26.909Z,19.10
2017-08-26T02:58:54.957Z,19.10
2017-08-26T03:01:23.969Z,19.10
2017-08-26T03:03:51.989Z,19.20
2017-08-26T03:06:20.013Z,19.20
2017-08-26T03:08:49.720Z,19.10
2017-08-26T03:11:17.729Z,19.10
2017-08-26T03:13:47.713Z,19.10
2017-08-26T03:16:15.733Z,19.00
2017-08-26T03:18:43.760Z,19.00
2017-08-26T03:21:11.781Z,19.00
2017-08-26T03:23:40.777Z,19.00
2017-08-26T03:26:08.797Z,19.00
2017-08-26T03:28:37.788Z,18.90
2017-08-26T03:31:05.819Z,18.90
2017-08-26T03:33:33.844Z,18.90
2017-08-26T03:36:02.808Z,18.70
2017-08-26T03:38:30.833Z,18.60
2017-08-26T03:40:58.860Z,18.60
2017-08-26T03:43:27.660Z,18.70
2017-08-26T03:45:55.700Z,18.70
2017-08-26T03:48:23.732Z,18.70
2017-08-26T03:50:51.777Z,18.60
2017-08-26T03:53:19.829Z,18.50
2017-08-26T03:55:48.800Z,18.40
2017-08-26T03:58:16.836Z,18.40
2017-08-26T04:00:44.868Z,18.50
2017-08-26T04:03:14.852Z,18.50
2017-08-26T04:05:43.861Z,18.50
2017-08-26T04:08:12.824Z,18.50
2017-08-26T04:10:40.849Z,18.40
2017-08-26T04:13:08.876Z,18.40
2017-08-26T04:15:36.895Z,18.30
2017-08-26T04:18:08.512Z,18.40
2017-08-26T04:20:36.536Z,18.40
2017-08-26T04:23:05.568Z,18.40
2017-08-26T04:25:33.638Z,18.30
2017-08-26T04:28:02.636Z,18.30
2017-08-26T04:30:30.668Z,18.40
2017-08-26T04:32:59.744Z,18.40
2017-08-26T04:35:32.268Z,18.30
2017-08-26T04:38:00.304Z,18.10
2017-08-26T04:40:29.332Z,18.10
2017-08-26T04:43:02.339Z,18.20
2017-08-26T04:45:32.136Z,18.00
2017-08-26T04:48:00.168Z,18.00
2017-08-26T04:50:29.207Z,18.00
2017-08-26T04:52:57.232Z,18.00
2017-08-26T04:55:25.260Z,17.90
2017-08-26T04:57:54.267Z,17.90
2017-08-26T05:00:22.264Z,17.90
2017-08-26T05:02:52.220Z,17.90
2017-08-26T05:05:20.295Z,18.00
2017-08-26T05:07:48.335Z,18.00
2017-08-26T05:10:17.348Z,18.00
2017-08-26T05:12:46.329Z,18.10
2017-08-26T05:15:14.352Z,18.10
2017-08-26T05:17:42.379Z,18.10
2017-08-26T05:20:14.988Z,18.20
2017-08-26T05:22:45.695Z,18.30
2017-08-26T05:25:13.715Z,18.20
2017-08-26T05:27:41.735Z,18.30
2017-08-26T05:30:09.759Z,18.40
2017-08-26T05:32:38.684Z,18.60
2017-08-26T05:35:08.715Z,18.80
2017-08-26T05:37:44.536Z,18.90
2017-08-26T05:40:13.579Z,19.00
2017-08-26T05:42:41.607Z,19.20
2017-08-26T05:45:12.979Z,19.30
2017-08-26T05:47:41.955Z,19.50
2017-08-26T05:50:13.427Z,19.70
2017-08-26T05:52:42.399Z,19.80
2017-08-26T05:55:10.451Z,20.00
2017-08-26T05:57:38.477Z,20.00
2017-08-26T06:00:07.267Z,20.30
2017-08-26T06:02:37.032Z,20.40
2017-08-26T06:05:06.041Z,20.40
2017-08-26T06:07:34.107Z,20.50
2017-08-26T06:10:02.111Z,20.80
2017-08-26T06:12:30.151Z,21.00
2017-08-26T06:14:58.467Z,21.10
2017-08-26T06:17:26.443Z,21.30
2017-08-26T06:19:54.472Z,21.50
2017-08-26T06:22:24.359Z,21.50
2017-08-26T06:24:52.375Z,21.70
2017-08-26T06:27:21.184Z,22.00
2017-08-26T06:29:49.199Z,22.00
2017-08-26T06:32:18.263Z,22.10
2017-08-26T06:34:47.123Z,22.00
2017-08-26T06:37:16.887Z,21.90
2017-08-26T06:39:44.907Z,21.90
2017-08-26T06:42:12.943Z,22.10
2017-08-26T06:44:40.951Z,22.40
2017-08-26T06:47:08.967Z,22.60
2017-08-26T06:49:36.991Z,22.60
2017-08-26T06:52:05.011Z,22.80
2017-08-26T06:54:33.994Z,23.10
2017-08-26T06:57:02.019Z,23.40
2017-08-26T06:59:30.031Z,23.60
2017-08-26T07:01:58.050Z,23.80
2017-08-26T07:04:26.091Z,24.00
2017-08-26T07:06:54.106Z,24.10
2017-08-26T07:09:22.127Z,24.10
2017-08-26T07:11:50.146Z,24.00
2017-08-26T07:14:18.163Z,24.10
2017-08-26T07:16:46.182Z,24.20
2017-08-26T07:19:14.210Z,24.20
2017-08-26T07:21:43.182Z,24.60
2017-08-26T07:24:16.194Z,24.80
2017-08-26T07:26:44.206Z,25.10
2017-08-26T07:29:13.231Z,25.50
2017-08-26T07:31:42.234Z,25.80
2017-08-26T07:34:10.252Z,25.80
2017-08-26T07:36:38.262Z,26.20
2017-08-26T07:39:07.263Z,26.10
2017-08-26T07:41:35.274Z,26.40
2017-08-26T07:44:03.291Z,26.40
2017-08-26T07:46:32.290Z,26.30
2017-08-26T07:49:00.311Z,26.10
2017-08-26T07:51:28.326Z,26.40
2017-08-26T07:53:56.346Z,26.40
2017-08-26T07:56:24.358Z,26.20
2017-08-26T07:58:52.366Z,26.40
2017-08-26T08:01:20.386Z,26.60
2017-08-26T08:03:48.406Z,26.70
2017-08-26T08:06:18.186Z,27.40
2017-08-26T08:08:46.209Z,27.40
2017-08-26T08:11:15.146Z,27.50
2017-08-26T08:13:43.934Z,28.40
2017-08-26T08:16:11.963Z,28.40
2017-08-26T08:18:39.967Z,28.00
2017-08-26T08:21:07.990Z,28.30
2017-08-26T08:23:36.018Z,28.40
2017-08-26T08:26:05.010Z,28.90
2017-08-26T08:28:37.382Z,29.00
2017-08-26T08:31:05.402Z,28.90
2017-08-26T08:33:34.350Z,29.10
2017-08-26T08:36:02.379Z,29.40
2017-08-26T08:38:30.401Z,29.40
2017-08-26T08:40:59.373Z,29.10
2017-08-26T08:43:27.398Z,29.20
2017-08-26T08:45:55.426Z,29.10
2017-08-26T08:48:24.225Z,29.80
2017-08-26T08:50:52.249Z,29.80
2017-08-26T08:53:20.265Z,30.10
2017-08-26T08:55:49.177Z,30.60
2017-08-26T08:58:17.217Z,30.90
2017-08-26T09:00:46.121Z,31.20
2017-08-26T09:03:14.902Z,31.40
2017-08-26T09:05:44.621Z,31.40
2017-08-26T09:08:13.416Z,32.10
2017-08-26T09:10:43.185Z,32.30
2017-08-26T09:13:11.225Z,32.30
2017-08-26T09:15:39.245Z,32.30
2017-08-26T09:18:07.257Z,32.60
2017-08-26T09:20:35.282Z,32.70
2017-08-26T09:23:03.298Z,32.70
2017-08-26T09:25:31.313Z,32.80
2017-08-26T09:27:59.357Z,33.00
2017-08-26T09:30:27.377Z,33.10
2017-08-26T09:32:56.265Z,33.10
2017-08-26T09:35:25.053Z,33.30
2017-08-26T09:37:53.868Z,33.00
2017-08-26T09:40:21.877Z,33.00
2017-08-26T09:42:51.909Z,33.00
2017-08-26T09:45:19.933Z,33.20
2017-08-26T11:09:46.540Z,33.50
2017-08-26T11:12:15.568Z,38.20
2017-08-26T11:14:45.336Z,39.00
2017-08-26T11:17:14.360Z,39.00
2017-08-26T11:19:42.380Z,39.20
2017-08-26T11:22:10.412Z,38.70
2017-08-26T11:24:39.213Z,39.30
2017-08-26T11:27:08.160Z,39.30
2017-08-26T11:29:38.172Z,39.70
2017-08-26T11:32:08.228Z,39.10
2017-08-26T11:34:37.008Z,38.00
2017-08-26T11:37:05.982Z,37.90
2017-08-26T11:39:33.996Z,37.50
2017-08-26T11:42:02.024Z,37.50
2017-08-26T11:44:31.000Z,37.50
2017-08-26T11:46:59.039Z,37.30
2017-08-26T11:49:27.267Z,37.10
2017-08-26T11:51:55.286Z,37.70
2017-08-26T11:54:23.307Z,37.80
2017-08-26T11:56:53.324Z,37.80
2017-08-26T11:59:22.388Z,38.00
2017-08-26T12:01:50.424Z,38.30
2017-08-26T12:04:18.443Z,37.50
2017-08-26T12:06:46.456Z,38.30
2017-08-26T12:09:14.496Z,38.20
2017-08-26T12:11:42.539Z,38.30
2017-08-26T12:14:11.451Z,38.60
2017-08-26T12:16:39.495Z,38.10
2017-08-26T12:19:07.520Z,37.90
2017-08-26T12:21:35.539Z,38.50
2017-08-26T12:24:03.574Z,38.30
2017-08-26T12:26:32.504Z,38.50
2017-08-26T12:29:00.523Z,38.40
2017-08-26T12:31:29.496Z,38.90
2017-08-26T12:33:58.283Z,38.00
2017-08-26T12:36:27.240Z,37.90
2017-08-26T12:38:55.263Z,37.80
2017-08-26T12:41:23.292Z,37.70
2017-08-26T12:43:51.316Z,37.30
2017-08-26T12:46:19.343Z,37.50
2017-08-26T12:48:47.364Z,37.70
2017-08-26T12:51:15.408Z,37.70
2017-08-26T12:53:43.444Z,37.90
2017-08-26T12:56:11.463Z,37.70
2017-08-26T12:58:40.395Z,37.90
2017-08-26T13:01:08.443Z,37.80
2017-08-26T13:03:37.431Z,37.70
2017-08-26T13:06:15.987Z,36.80
2017-08-26T13:08:58.387Z,37.30
2017-08-26T13:11:28.411Z,37.90
2017-08-26T13:13:56.428Z,37.60
2017-08-26T13:16:24.452Z,37.00
2017-08-26T13:18:53.439Z,36.50
2017-08-26T13:21:22.427Z,37.10
2017-08-26T13:23:51.419Z,37.70
2017-08-26T13:26:19.443Z,37.80
2017-08-26T13:28:47.459Z,37.30
2017-08-26T13:31:16.295Z,37.80
2017-08-26T13:33:45.239Z,37.70
2017-08-26T13:36:13.255Z,37.40
2017-08-26T13:38:41.287Z,37.10
2017-08-26T13:41:09.307Z,37.70
2017-08-26T13:43:37.336Z,38.50
2017-08-26T13:46:06.300Z,39.30
2017-08-26T13:48:35.303Z,39.60
2017-08-26T13:51:03.331Z,39.20
2017-08-26T13:53:32.351Z,37.70
2017-08-26T13:56:01.359Z,37.30
2017-08-26T13:58:29.378Z,37.40
2017-08-26T14:00:57.399Z,37.40
2017-08-26T14:03:25.439Z,37.80
2017-08-26T14:05:54.452Z,37.40
2017-08-26T14:08:22.459Z,38.10
2017-08-26T14:10:52.257Z,37.90
2017-08-26T14:13:22.295Z,37.90
2017-08-26T14:15:50.326Z,37.00
2017-08-26T14:18:19.319Z,37.00
2017-08-26T14:20:47.351Z,37.60
2017-08-26T14:23:16.375Z,38.00
2017-08-26T14:25:44.411Z,38.30
2017-08-26T14:28:12.431Z,38.10
2017-08-26T14:30:40.447Z,38.10
2017-08-26T14:33:10.671Z,37.20
2017-08-26T14:35:38.679Z,36.40
2017-08-26T14:38:06.696Z,36.90
2017-08-26T14:40:34.722Z,37.30
2017-08-26T14:43:02.735Z,38.10
2017-08-26T14:45:30.751Z,38.20
2017-08-26T14:47:58.771Z,38.60
2017-08-26T14:50:26.794Z,39.10
2017-08-26T14:52:56.816Z,39.00
2017-08-26T14:55:24.835Z,38.20
2017-08-26T14:57:52.851Z,36.20
2017-08-26T15:00:21.838Z,35.00
2017-08-26T15:02:49.879Z,34.20
2017-08-26T15:05:17.887Z,33.30
2017-08-26T15:07:45.914Z,33.30
2017-08-26T15:10:13.967Z,33.90
2017-08-26T15:12:41.994Z,34.60
2017-08-26T15:15:10.011Z,35.10
2017-08-26T15:17:38.050Z,35.10
2017-08-26T15:20:06.076Z,35.30
2017-08-26T15:22:34.098Z,35.20
2017-08-26T15:25:03.795Z,35.70
2017-08-26T15:27:31.810Z,35.70
2017-08-26T15:29:59.826Z,35.10
2017-08-26T15:32:27.866Z,34.70
2017-08-26T15:34:55.895Z,35.00
2017-08-26T15:37:24.667Z,35.70
2017-08-26T15:39:53.598Z,35.70
2017-08-26T15:42:21.618Z,36.10
2017-08-26T15:44:49.631Z,36.10
2017-08-26T15:47:18.563Z,35.90
2017-08-26T15:49:46.586Z,34.90
2017-08-26T15:52:16.350Z,34.60
2017-08-26T15:54:44.378Z,34.60
2017-08-26T15:57:14.122Z,33.90
2017-08-26T15:59:42.146Z,33.90
2017-08-26T16:02:10.166Z,33.40
2017-08-26T16:04:38.190Z,33.40
2017-08-26T16:07:06.198Z,33.10
2017-08-26T16:09:34.242Z,32.70
2017-08-26T16:12:02.263Z,32.60
2017-08-26T16:14:30.270Z,32.60
2017-08-26T16:16:59.182Z,32.70
2017-08-26T16:19:27.202Z,32.60
2017-08-26T16:21:57.925Z,32.20
2017-08-26T16:24:26.918Z,32.20
2017-08-26T16:26:54.942Z,31.90
2017-08-26T16:29:22.962Z,32.00
2017-08-26T16:31:50.986Z,32.20
2017-08-26T16:34:19.005Z,32.20
2017-08-26T16:36:49.713Z,32.00
2017-08-26T16:39:18.718Z,32.00
2017-08-26T16:41:53.610Z,31.90
2017-08-26T16:44:21.654Z,31.60
2017-08-26T16:46:49.686Z,31.40
2017-08-26T16:49:17.710Z,31.30
2017-08-26T16:51:45.738Z,31.10
2017-08-26T16:54:13.758Z,31.00
2017-08-26T16:56:41.778Z,31.00
2017-08-26T16:59:10.770Z,30.90
2017-08-26T17:01:38.789Z,30.80
2017-08-26T17:04:06.813Z,30.60
2017-08-26T17:06:35.022Z,30.50
2017-08-26T17:09:03.961Z,30.20
2017-08-26T17:11:32.954Z,30.10
2017-08-26T17:14:02.966Z,30.00
2017-08-26T17:16:31.005Z,29.90
2017-08-26T17:18:59.010Z,29.90
2017-08-26T17:21:28.006Z,29.70
2017-08-26T17:23:56.026Z,29.60
2017-08-26T17:26:24.961Z,29.50
2017-08-26T17:28:52.993Z,29.40
2017-08-26T17:31:21.021Z,29.20
2017-08-26T17:33:49.041Z,29.10
2017-08-26T17:36:17.094Z,29.00
2017-08-26T17:38:45.101Z,28.90
2017-08-26T17:41:13.121Z,28.70
2017-08-26T17:43:41.929Z,28.40
2017-08-26T17:46:09.945Z,28.30
2017-08-26T17:48:37.961Z,28.20
2017-08-26T17:51:06.009Z,28.00
2017-08-26T17:53:34.785Z,27.50
2017-08-26T17:56:02.809Z,27.50
2017-08-26T17:58:31.836Z,27.20
2017-08-26T18:00:59.857Z,26.90
2017-08-26T18:03:27.880Z,26.70
2017-08-26T18:05:56.876Z,26.60
2017-08-26T18:08:29.953Z,26.40
2017-08-26T18:10:57.968Z,26.10
2017-08-26T18:13:25.996Z,25.80
2017-08-26T18:15:54.030Z,25.60
2017-08-26T18:18:22.077Z,25.40
2017-08-26T18:20:50.104Z,25.20
2017-08-26T18:23:18.132Z,24.90
2017-08-26T18:25:46.928Z,24.50
2017-08-26T18:28:16.889Z,24.50
2017-08-26T18:30:45.804Z,24.40
2017-08-26T18:33:13.845Z,24.30
2017-08-26T18:35:41.864Z,24.20
2017-08-26T18:38:11.608Z,23.90
2017-08-26T18:40:39.640Z,23.80
2017-08-26T18:43:07.652Z,23.70
2017-08-26T18:45:35.808Z,23.60
2017-08-26T18:48:03.893Z,23.50
2017-08-26T18:50:31.892Z,23.40
2017-08-26T18:53:00.244Z,23.30
2017-08-26T18:55:28.428Z,23.20
2017-08-26T18:57:56.620Z,23.20
2017-08-26T19:00:24.735Z,23.20
2017-08-26T19:02:52.923Z,23.20
2017-08-26T19:05:21.152Z,23.20
2017-08-26T19:07:49.308Z,23.10
2017-08-26T19:10:17.356Z,23.10
2017-08-26T19:12:45.383Z,23.10
2017-08-26T19:15:13.579Z,23.00
2017-08-26T19:17:41.672Z,22.90
2017-08-26T19:20:09.700Z,22.80
2017-08-26T19:22:37.731Z,22.80
2017-08-26T19:25:06.739Z,22.80
2017-08-26T19:27:34.783Z,22.70
2017-08-26T19:30:03.720Z,22.70
2017-08-26T19:32:31.775Z,22.60
2017-08-26T19:35:00.511Z,22.60
2017-08-26T19:37:28.543Z,22.60
2017-08-26T19:39:56.612Z,22.60
2017-08-26T19:42:24.631Z,22.50
2017-08-26T19:44:52.669Z,22.40
2017-08-26T19:47:20.700Z,22.40
2017-08-26T19:49:49.507Z,22.00
2017-08-26T19:52:17.555Z,22.00
2017-08-26T19:54:46.531Z,21.90
2017-08-26T19:57:14.567Z,21.80
2017-08-26T19:59:42.604Z,21.80
2017-08-26T20:02:10.680Z,21.80
2017-08-26T20:04:38.711Z,21.80
2017-08-26T20:07:06.739Z,21.80
2017-08-26T20:09:34.783Z,21.80
2017-08-26T20:12:02.943Z,21.70
2017-08-26T20:14:30.964Z,21.60
2017-08-26T20:17:00.931Z,21.50
2017-08-26T20:19:36.835Z,21.50
2017-08-26T20:22:05.871Z,21.40
2017-08-26T20:24:33.891Z,21.30
2017-08-26T20:27:01.920Z,21.20
2017-08-26T20:29:30.743Z,21.20
2017-08-26T20:31:58.780Z,21.10
2017-08-26T20:34:28.563Z,20.90
2017-08-26T20:36:56.607Z,20.80
2017-08-26T20:39:24.639Z,20.80
2017-08-26T20:41:53.427Z,20.80
2017-08-26T20:44:21.495Z,20.80
2017-08-26T20:46:49.520Z,20.80
2017-08-26T20:49:17.708Z,20.80
2017-08-26T20:51:47.019Z,20.70
2017-08-26T20:54:17.395Z,20.70
2017-08-26T20:56:46.291Z,20.70
2017-08-26T20:59:15.307Z,20.70
2017-08-26T21:01:43.584Z,20.70
2017-08-26T21:04:11.959Z,20.80
2017-08-26T21:06:40.443Z,20.80
2017-08-26T21:09:08.488Z,20.80
2017-08-26T21:11:37.527Z,20.70
2017-08-26T21:14:05.543Z,20.70
2017-08-26T21:16:33.591Z,20.60
2017-08-26T21:19:03.559Z,20.50
2017-08-26T21:21:32.239Z,20.40
2017-08-26T21:24:02.727Z,20.30
2017-08-26T21:26:32.127Z,20.20
2017-08-26T21:29:00.851Z,20.10
2017-08-26T21:31:29.215Z,20.00
2017-08-26T21:33:57.243Z,19.90
2017-08-26T21:36:27.033Z,19.80
2017-08-26T21:38:55.073Z,19.80
2017-08-26T21:41:23.104Z,19.70
2017-08-26T21:43:51.126Z,19.60
2017-08-26T21:46:19.163Z,19.60
2017-08-26T21:48:48.199Z,19.60
2017-08-26T21:51:16.227Z,19.60
2017-08-26T21:53:44.266Z,19.60
2017-08-26T21:56:13.075Z,19.40
2017-08-26T21:58:41.107Z,19.40
2017-08-26T22:01:09.135Z,19.40
2017-08-26T22:03:37.159Z,19.40
2017-08-26T22:06:05.970Z,19.50
2017-08-26T22:08:34.018Z,19.50
2017-08-26T22:11:02.811Z,19.40
2017-08-26T22:13:30.847Z,19.40
2017-08-26T22:15:58.906Z,19.30
2017-08-26T22:18:26.924Z,19.20
2017-08-26T22:20:54.950Z,19.20
2017-08-26T22:23:23.959Z,19.20
2017-08-26T22:25:51.987Z,19.30
2017-08-26T22:28:20.010Z,19.30
2017-08-26T22:30:49.006Z,19.20
2017-08-26T22:33:17.922Z,19.20
2017-08-26T22:35:45.946Z,19.10
2017-08-26T22:38:14.092Z,19.00
2017-08-26T22:40:42.131Z,18.80
2017-08-26T22:43:10.170Z,18.70
2017-08-26T22:45:38.198Z,18.70
2017-08-26T22:48:06.215Z,18.80
2017-08-26T22:50:35.014Z,18.90
2017-08-26T22:53:03.070Z,18.90
2017-08-26T22:55:31.098Z,18.80
2017-08-26T22:57:59.127Z,18.70
2017-08-26T23:00:27.962Z,18.60
2017-08-26T23:02:55.990Z,18.60
2017-08-26T23:05:23.994Z,18.60
2017-08-26T23:07:52.834Z,18.70
2017-08-26T23:10:21.654Z,18.60
2017-08-26T23:12:49.674Z,18.60
2017-08-26T23:15:17.730Z,18.60
2017-08-26T23:17:45.751Z,18.60
2017-08-26T23:20:13.783Z,18.60
2017-08-26T23:22:41.822Z,18.60
2017-08-26T23:25:10.849Z,18.50
2017-08-26T23:27:38.890Z,18.50
2017-08-26T23:30:06.934Z,18.40
2017-08-26T23:32:35.878Z,18.40
2017-08-26T23:35:04.874Z,18.30
2017-08-26T23:37:32.906Z,18.40
2017-08-26T23:40:01.934Z,18.40
2017-08-26T23:42:29.970Z,18.30
2017-08-26T23:44:58.057Z,18.20
2017-08-26T23:47:26.083Z,18.10
2017-08-26T23:49:54.865Z,18.10
2017-08-26T23:52:22.926Z,18.10
2017-08-26T23:54:50.970Z,18.20
2017-08-26T23:57:19.001Z,18.30
2017-08-26T23:59:47.041Z,18.30
